sensor_id;sensor_type;location;lat;lon;timestamp;P1;durP1;ratioP1;P2;durP2;ratioP2
52868;SDS011;39100;53.480;6.158;2023-01-16T00:00:21;2.53;;;1.02;;
52868;SDS011;39100;53.480;6.158;2023-01-16T00:02:47;4.47;;;1.30;;
52868;SDS011;39100;53.480;6.158;2023-01-16T00:05:12;4.75;;;1.38;;
52868;SDS011;39100;53.480;6.158;2023-01-16T00:07:38;3.63;;;1.33;;
52868;SDS011;39100;53.480;6.158;2023-01-16T00:10:04;2.55;;;1.85;;
52868;SDS011;39100;53.480;6.158;2023-01-16T00:12:30;4.18;;;1.80;;
52868;SDS011;39100;53.480;6.158;2023-01-16T00:14:55;3.22;;;1.70;;
52868;SDS011;39100;53.480;6.158;2023-01-16T00:17:21;2.20;;;2.00;;
52868;SDS011;39100;53.480;6.158;2023-01-16T00:19:47;1.85;;;1.65;;
52868;SDS011;39100;53.480;6.158;2023-01-16T00:22:12;2.30;;;1.45;;
52868;SDS011;39100;53.480;6.158;2023-01-16T00:24:38;3.90;;;2.13;;
52868;SDS011;39100;53.480;6.158;2023-01-16T00:27:04;2.75;;;2.03;;
52868;SDS011;39100;53.480;6.158;2023-01-16T00:29:29;2.20;;;1.88;;
52868;SDS011;39100;53.480;6.158;2023-01-16T00:31:55;2.10;;;1.63;;
52868;SDS011;39100;53.480;6.158;2023-01-16T00:34:20;3.92;;;1.58;;
52868;SDS011;39100;53.480;6.158;2023-01-16T00:36:46;1.75;;;1.35;;
52868;SDS011;39100;53.480;6.158;2023-01-16T00:39:12;1.70;;;1.05;;
52868;SDS011;39100;53.480;6.158;2023-01-16T00:41:37;2.15;;;1.27;;
52868;SDS011;39100;53.480;6.158;2023-01-16T00:44:03;2.13;;;1.65;;
52868;SDS011;39100;53.480;6.158;2023-01-16T00:46:28;2.67;;;1.58;;
52868;SDS011;39100;53.480;6.158;2023-01-16T00:48:54;1.25;;;0.90;;
52868;SDS011;39100;53.480;6.158;2023-01-16T00:51:21;2.22;;;1.10;;
52868;SDS011;39100;53.480;6.158;2023-01-16T00:53:47;2.20;;;1.48;;
52868;SDS011;39100;53.480;6.158;2023-01-16T00:56:12;2.40;;;1.20;;
52868;SDS011;39100;53.480;6.158;2023-01-16T00:58:38;3.20;;;1.58;;
52868;SDS011;39100;53.480;6.158;2023-01-16T01:01:04;1.70;;;1.10;;
52868;SDS011;39100;53.480;6.158;2023-01-16T01:03:30;3.28;;;1.00;;
52868;SDS011;39100;53.480;6.158;2023-01-16T01:05:56;2.22;;;1.40;;
52868;SDS011;39100;53.480;6.158;2023-01-16T01:08:22;2.30;;;1.40;;
52868;SDS011;39100;53.480;6.158;2023-01-16T01:10:48;1.98;;;1.10;;
52868;SDS011;39100;53.480;6.158;2023-01-16T01:13:14;1.55;;;1.30;;
52868;SDS011;39100;53.480;6.158;2023-01-16T01:15:39;1.90;;;1.60;;
52868;SDS011;39100;53.480;6.158;2023-01-16T01:18:05;2.08;;;1.40;;
52868;SDS011;39100;53.480;6.158;2023-01-16T01:20:31;3.35;;;1.60;;
52868;SDS011;39100;53.480;6.158;2023-01-16T01:22:57;3.55;;;1.10;;
52868;SDS011;39100;53.480;6.158;2023-01-16T01:25:23;2.42;;;1.63;;
52868;SDS011;39100;53.480;6.158;2023-01-16T01:27:49;2.30;;;1.45;;
52868;SDS011;39100;53.480;6.158;2023-01-16T01:30:14;2.40;;;1.23;;
52868;SDS011;39100;53.480;6.158;2023-01-16T01:32:41;4.38;;;1.73;;
52868;SDS011;39100;53.480;6.158;2023-01-16T01:35:07;3.13;;;2.05;;
52868;SDS011;39100;53.480;6.158;2023-01-16T01:37:33;3.10;;;1.63;;
52868;SDS011;39100;53.480;6.158;2023-01-16T01:40:00;3.25;;;1.80;;
52868;SDS011;39100;53.480;6.158;2023-01-16T01:42:25;2.17;;;1.90;;
52868;SDS011;39100;53.480;6.158;2023-01-16T01:45:17;3.20;;;2.00;;
52868;SDS011;39100;53.480;6.158;2023-01-16T01:55:49;6.43;;;2.42;;
52868;SDS011;39100;53.480;6.158;2023-01-16T01:58:17;2.83;;;2.20;;
52868;SDS011;39100;53.480;6.158;2023-01-16T02:00:48;3.80;;;1.92;;
52868;SDS011;39100;53.480;6.158;2023-01-16T02:03:18;4.35;;;2.30;;
52868;SDS011;39100;53.480;6.158;2023-01-16T02:05:51;3.70;;;2.20;;
52868;SDS011;39100;53.480;6.158;2023-01-16T02:08:19;2.55;;;2.10;;
52868;SDS011;39100;53.480;6.158;2023-01-16T02:10:48;5.22;;;2.25;;
52868;SDS011;39100;53.480;6.158;2023-01-16T02:13:17;2.33;;;2.13;;
52868;SDS011;39100;53.480;6.158;2023-01-16T02:15:42;4.85;;;2.67;;
52868;SDS011;39100;53.480;6.158;2023-01-16T02:18:27;7.28;;;2.45;;
52868;SDS011;39100;53.480;6.158;2023-01-16T02:34:51;4.15;;;2.70;;
52868;SDS011;39100;53.480;6.158;2023-01-16T02:37:54;3.15;;;2.20;;
52868;SDS011;39100;53.480;6.158;2023-01-16T02:40:22;4.38;;;2.42;;
52868;SDS011;39100;53.480;6.158;2023-01-16T02:43:09;5.05;;;2.53;;
52868;SDS011;39100;53.480;6.158;2023-01-16T02:48:36;4.32;;;2.42;;
52868;SDS011;39100;53.480;6.158;2023-01-16T02:56:24;2.67;;;2.20;;
52868;SDS011;39100;53.480;6.158;2023-01-16T02:58:55;3.63;;;1.88;;
52868;SDS011;39100;53.480;6.158;2023-01-16T03:01:21;5.63;;;2.17;;
52868;SDS011;39100;53.480;6.158;2023-01-16T03:06:23;6.28;;;2.25;;
52868;SDS011;39100;53.480;6.158;2023-01-16T03:09:24;6.07;;;1.95;;
52868;SDS011;39100;53.480;6.158;2023-01-16T03:17:28;3.47;;;1.70;;
52868;SDS011;39100;53.480;6.158;2023-01-16T03:22:39;3.85;;;1.42;;
52868;SDS011;39100;53.480;6.158;2023-01-16T03:28:39;5.25;;;2.13;;
52868;SDS011;39100;53.480;6.158;2023-01-16T03:31:21;2.95;;;1.58;;
52868;SDS011;39100;53.480;6.158;2023-01-16T03:36:38;3.30;;;1.42;;
52868;SDS011;39100;53.480;6.158;2023-01-16T03:39:18;2.38;;;1.67;;
52868;SDS011;39100;53.480;6.158;2023-01-16T03:41:48;2.63;;;1.67;;
52868;SDS011;39100;53.480;6.158;2023-01-16T03:44:25;3.25;;;1.48;;
52868;SDS011;39100;53.480;6.158;2023-01-16T03:46:54;2.05;;;1.38;;
52868;SDS011;39100;53.480;6.158;2023-01-16T03:49:27;2.42;;;1.35;;
52868;SDS011;39100;53.480;6.158;2023-01-16T03:52:06;4.50;;;1.60;;
52868;SDS011;39100;53.480;6.158;2023-01-16T03:54:36;3.72;;;2.00;;
52868;SDS011;39100;53.480;6.158;2023-01-16T03:57:34;2.47;;;2.10;;
52868;SDS011;39100;53.480;6.158;2023-01-16T04:00:04;2.78;;;1.52;;
52868;SDS011;39100;53.480;6.158;2023-01-16T04:05:24;3.92;;;2.15;;
52868;SDS011;39100;53.480;6.158;2023-01-16T04:08:18;3.85;;;1.88;;
52868;SDS011;39100;53.480;6.158;2023-01-16T04:10:51;3.53;;;2.30;;
52868;SDS011;39100;53.480;6.158;2023-01-16T04:13:18;2.45;;;1.88;;
52868;SDS011;39100;53.480;6.158;2023-01-16T04:15:48;2.55;;;2.17;;
52868;SDS011;39100;53.480;6.158;2023-01-16T04:18:16;5.38;;;2.33;;
52868;SDS011;39100;53.480;6.158;2023-01-16T04:20:43;3.00;;;2.15;;
52868;SDS011;39100;53.480;6.158;2023-01-16T04:23:12;5.38;;;2.13;;
52868;SDS011;39100;53.480;6.158;2023-01-16T04:25:38;4.78;;;2.00;;
52868;SDS011;39100;53.480;6.158;2023-01-16T04:28:04;3.83;;;2.22;;
52868;SDS011;39100;53.480;6.158;2023-01-16T04:30:29;5.78;;;2.28;;
52868;SDS011;39100;53.480;6.158;2023-01-16T04:32:55;4.72;;;2.03;;
52868;SDS011;39100;53.480;6.158;2023-01-16T04:35:21;2.40;;;1.52;;
52868;SDS011;39100;53.480;6.158;2023-01-16T04:37:46;4.20;;;1.92;;
52868;SDS011;39100;53.480;6.158;2023-01-16T04:40:12;2.95;;;2.15;;
52868;SDS011;39100;53.480;6.158;2023-01-16T04:42:37;4.20;;;2.28;;
52868;SDS011;39100;53.480;6.158;2023-01-16T04:45:03;5.10;;;2.20;;
52868;SDS011;39100;53.480;6.158;2023-01-16T04:47:29;4.10;;;1.92;;
52868;SDS011;39100;53.480;6.158;2023-01-16T04:49:55;4.22;;;2.22;;
52868;SDS011;39100;53.480;6.158;2023-01-16T04:52:20;2.70;;;2.50;;
52868;SDS011;39100;53.480;6.158;2023-01-16T04:54:46;3.38;;;2.90;;
52868;SDS011;39100;53.480;6.158;2023-01-16T04:57:11;4.63;;;2.67;;
52868;SDS011;39100;53.480;6.158;2023-01-16T04:59:37;5.57;;;2.78;;
52868;SDS011;39100;53.480;6.158;2023-01-16T05:02:03;3.35;;;2.53;;
52868;SDS011;39100;53.480;6.158;2023-01-16T05:04:28;3.08;;;2.25;;
52868;SDS011;39100;53.480;6.158;2023-01-16T05:06:54;7.25;;;2.95;;
52868;SDS011;39100;53.480;6.158;2023-01-16T05:09:19;2.95;;;2.65;;
52868;SDS011;39100;53.480;6.158;2023-01-16T05:11:45;3.70;;;2.63;;
52868;SDS011;39100;53.480;6.158;2023-01-16T05:14:10;3.75;;;2.47;;
52868;SDS011;39100;53.480;6.158;2023-01-16T05:16:36;4.28;;;2.35;;
52868;SDS011;39100;53.480;6.158;2023-01-16T05:19:03;4.03;;;2.60;;
52868;SDS011;39100;53.480;6.158;2023-01-16T05:21:29;4.13;;;2.60;;
52868;SDS011;39100;53.480;6.158;2023-01-16T05:23:55;4.82;;;3.05;;
52868;SDS011;39100;53.480;6.158;2023-01-16T05:26:20;3.35;;;2.45;;
52868;SDS011;39100;53.480;6.158;2023-01-16T05:28:46;4.63;;;2.60;;
52868;SDS011;39100;53.480;6.158;2023-01-16T05:31:11;4.68;;;2.80;;
52868;SDS011;39100;53.480;6.158;2023-01-16T05:33:37;4.88;;;2.38;;
52868;SDS011;39100;53.480;6.158;2023-01-16T05:36:03;3.13;;;2.55;;
52868;SDS011;39100;53.480;6.158;2023-01-16T05:38:28;4.18;;;2.08;;
52868;SDS011;39100;53.480;6.158;2023-01-16T05:40:54;6.45;;;2.85;;
52868;SDS011;39100;53.480;6.158;2023-01-16T05:43:20;6.35;;;2.40;;
52868;SDS011;39100;53.480;6.158;2023-01-16T05:45:45;4.47;;;1.95;;
52868;SDS011;39100;53.480;6.158;2023-01-16T05:48:11;5.20;;;2.00;;
52868;SDS011;39100;53.480;6.158;2023-01-16T05:50:36;5.22;;;2.28;;
52868;SDS011;39100;53.480;6.158;2023-01-16T05:53:02;4.78;;;2.58;;
52868;SDS011;39100;53.480;6.158;2023-01-16T05:55:28;6.78;;;2.50;;
52868;SDS011;39100;53.480;6.158;2023-01-16T05:57:53;5.07;;;2.30;;
52868;SDS011;39100;53.480;6.158;2023-01-16T06:00:19;2.20;;;2.00;;
52868;SDS011;39100;53.480;6.158;2023-01-16T06:02:44;3.80;;;2.50;;
52868;SDS011;39100;53.480;6.158;2023-01-16T06:05:11;5.03;;;2.65;;
52868;SDS011;39100;53.480;6.158;2023-01-16T06:07:37;3.63;;;1.90;;
52868;SDS011;39100;53.480;6.158;2023-01-16T06:10:03;4.13;;;2.50;;
52868;SDS011;39100;53.480;6.158;2023-01-16T06:12:29;6.05;;;2.60;;
52868;SDS011;39100;53.480;6.158;2023-01-16T06:14:57;5.68;;;2.47;;
52868;SDS011;39100;53.480;6.158;2023-01-16T06:17:23;5.07;;;2.75;;
52868;SDS011;39100;53.480;6.158;2023-01-16T06:19:48;8.88;;;3.67;;
52868;SDS011;39100;53.480;6.158;2023-01-16T06:22:14;4.70;;;3.42;;
52868;SDS011;39100;53.480;6.158;2023-01-16T06:24:40;5.55;;;2.92;;
52868;SDS011;39100;53.480;6.158;2023-01-16T06:27:06;4.85;;;3.22;;
52868;SDS011;39100;53.480;6.158;2023-01-16T06:29:31;5.13;;;3.13;;
52868;SDS011;39100;53.480;6.158;2023-01-16T06:31:57;8.07;;;4.20;;
52868;SDS011;39100;53.480;6.158;2023-01-16T06:34:23;5.53;;;3.33;;
52868;SDS011;39100;53.480;6.158;2023-01-16T06:36:48;7.15;;;4.40;;
52868;SDS011;39100;53.480;6.158;2023-01-16T06:39:14;5.13;;;3.55;;
52868;SDS011;39100;53.480;6.158;2023-01-16T06:41:40;8.57;;;3.60;;
52868;SDS011;39100;53.480;6.158;2023-01-16T06:44:06;5.70;;;3.70;;
52868;SDS011;39100;53.480;6.158;2023-01-16T06:46:32;7.38;;;3.67;;
52868;SDS011;39100;53.480;6.158;2023-01-16T06:48:58;6.75;;;4.28;;
52868;SDS011;39100;53.480;6.158;2023-01-16T06:51:24;8.95;;;4.18;;
52868;SDS011;39100;53.480;6.158;2023-01-16T06:53:49;10.73;;;4.05;;
52868;SDS011;39100;53.480;6.158;2023-01-16T06:56:15;9.00;;;4.45;;
52868;SDS011;39100;53.480;6.158;2023-01-16T06:58:42;5.28;;;3.50;;
52868;SDS011;39100;53.480;6.158;2023-01-16T07:01:07;6.88;;;3.80;;
52868;SDS011;39100;53.480;6.158;2023-01-16T07:03:33;6.25;;;3.70;;
52868;SDS011;39100;53.480;6.158;2023-01-16T07:05:59;6.97;;;4.07;;
52868;SDS011;39100;53.480;6.158;2023-01-16T07:08:24;5.68;;;3.88;;
52868;SDS011;39100;53.480;6.158;2023-01-16T07:10:50;6.15;;;3.83;;
52868;SDS011;39100;53.480;6.158;2023-01-16T07:13:15;8.18;;;3.88;;
52868;SDS011;39100;53.480;6.158;2023-01-16T07:15:46;9.77;;;4.25;;
52868;SDS011;39100;53.480;6.158;2023-01-16T07:18:31;8.30;;;4.03;;
52868;SDS011;39100;53.480;6.158;2023-01-16T07:21:16;7.22;;;3.65;;
52868;SDS011;39100;53.480;6.158;2023-01-16T07:24:02;6.97;;;3.67;;
52868;SDS011;39100;53.480;6.158;2023-01-16T07:26:34;7.53;;;4.43;;
52868;SDS011;39100;53.480;6.158;2023-01-16T07:29:04;5.75;;;3.55;;
52868;SDS011;39100;53.480;6.158;2023-01-16T07:31:31;7.78;;;3.65;;
52868;SDS011;39100;53.480;6.158;2023-01-16T07:33:58;4.65;;;3.20;;
52868;SDS011;39100;53.480;6.158;2023-01-16T07:36:23;6.28;;;3.15;;
52868;SDS011;39100;53.480;6.158;2023-01-16T07:38:49;8.43;;;4.13;;
52868;SDS011;39100;53.480;6.158;2023-01-16T07:41:14;6.80;;;3.50;;
52868;SDS011;39100;53.480;6.158;2023-01-16T07:43:40;6.85;;;3.78;;
52868;SDS011;39100;53.480;6.158;2023-01-16T07:46:06;6.60;;;3.15;;
52868;SDS011;39100;53.480;6.158;2023-01-16T07:48:31;5.22;;;3.13;;
52868;SDS011;39100;53.480;6.158;2023-01-16T07:50:57;5.07;;;2.92;;
52868;SDS011;39100;53.480;6.158;2023-01-16T07:53:24;7.95;;;3.90;;
52868;SDS011;39100;53.480;6.158;2023-01-16T07:55:53;4.63;;;3.53;;
52868;SDS011;39100;53.480;6.158;2023-01-16T07:58:20;6.93;;;3.28;;
52868;SDS011;39100;53.480;6.158;2023-01-16T08:00:46;5.28;;;2.97;;
52868;SDS011;39100;53.480;6.158;2023-01-16T08:03:13;5.70;;;3.55;;
52868;SDS011;39100;53.480;6.158;2023-01-16T08:05:39;4.90;;;3.45;;
52868;SDS011;39100;53.480;6.158;2023-01-16T08:08:05;4.82;;;3.05;;
52868;SDS011;39100;53.480;6.158;2023-01-16T08:10:31;5.65;;;3.13;;
52868;SDS011;39100;53.480;6.158;2023-01-16T08:12:57;4.72;;;3.30;;
52868;SDS011;39100;53.480;6.158;2023-01-16T08:15:22;6.22;;;3.25;;
52868;SDS011;39100;53.480;6.158;2023-01-16T08:17:48;8.10;;;3.35;;
52868;SDS011;39100;53.480;6.158;2023-01-16T08:20:14;4.38;;;2.88;;
52868;SDS011;39100;53.480;6.158;2023-01-16T08:22:45;5.20;;;2.97;;
52868;SDS011;39100;53.480;6.158;2023-01-16T08:25:13;8.02;;;3.50;;
52868;SDS011;39100;53.480;6.158;2023-01-16T08:27:39;6.00;;;3.35;;
52868;SDS011;39100;53.480;6.158;2023-01-16T08:30:06;4.50;;;3.00;;
52868;SDS011;39100;53.480;6.158;2023-01-16T08:32:33;5.90;;;3.53;;
52868;SDS011;39100;53.480;6.158;2023-01-16T08:34:59;5.75;;;2.85;;
52868;SDS011;39100;53.480;6.158;2023-01-16T08:37:25;4.70;;;2.60;;
52868;SDS011;39100;53.480;6.158;2023-01-16T08:39:51;4.10;;;2.58;;
52868;SDS011;39100;53.480;6.158;2023-01-16T08:42:16;4.57;;;2.60;;
52868;SDS011;39100;53.480;6.158;2023-01-16T08:45:00;5.85;;;3.22;;
52868;SDS011;39100;53.480;6.158;2023-01-16T08:47:45;6.25;;;2.83;;
52868;SDS011;39100;53.480;6.158;2023-01-16T08:50:29;3.53;;;2.75;;
52868;SDS011;39100;53.480;6.158;2023-01-16T08:53:13;5.75;;;2.50;;
52868;SDS011;39100;53.480;6.158;2023-01-16T08:55:39;4.47;;;3.00;;
52868;SDS011;39100;53.480;6.158;2023-01-16T08:58:05;5.97;;;2.95;;
52868;SDS011;39100;53.480;6.158;2023-01-16T09:00:30;5.55;;;3.13;;
52868;SDS011;39100;53.480;6.158;2023-01-16T09:02:57;7.55;;;2.97;;
52868;SDS011;39100;53.480;6.158;2023-01-16T09:05:24;7.25;;;3.10;;
52868;SDS011;39100;53.480;6.158;2023-01-16T09:07:51;5.20;;;3.20;;
52868;SDS011;39100;53.480;6.158;2023-01-16T09:10:16;6.50;;;3.20;;
52868;SDS011;39100;53.480;6.158;2023-01-16T09:12:42;4.65;;;2.58;;
52868;SDS011;39100;53.480;6.158;2023-01-16T09:15:26;5.30;;;2.55;;
52868;SDS011;39100;53.480;6.158;2023-01-16T09:17:52;4.47;;;2.63;;
52868;SDS011;39100;53.480;6.158;2023-01-16T09:20:18;4.38;;;2.65;;
52868;SDS011;39100;53.480;6.158;2023-01-16T09:22:44;5.45;;;3.30;;
52868;SDS011;39100;53.480;6.158;2023-01-16T09:25:09;3.35;;;2.03;;
52868;SDS011;39100;53.480;6.158;2023-01-16T09:27:35;6.47;;;2.75;;
52868;SDS011;39100;53.480;6.158;2023-01-16T09:30:01;4.60;;;2.70;;
52868;SDS011;39100;53.480;6.158;2023-01-16T09:32:27;8.70;;;3.17;;
52868;SDS011;39100;53.480;6.158;2023-01-16T09:34:53;5.13;;;2.72;;
52868;SDS011;39100;53.480;6.158;2023-01-16T09:37:18;6.88;;;3.03;;
52868;SDS011;39100;53.480;6.158;2023-01-16T09:39:44;4.22;;;2.88;;
52868;SDS011;39100;53.480;6.158;2023-01-16T09:42:25;2.53;;;2.08;;
52868;SDS011;39100;53.480;6.158;2023-01-16T09:45:14;3.55;;;2.47;;
52868;SDS011;39100;53.480;6.158;2023-01-16T09:47:43;3.72;;;2.15;;
52868;SDS011;39100;53.480;6.158;2023-01-16T09:50:24;5.53;;;2.72;;
52868;SDS011;39100;53.480;6.158;2023-01-16T09:53:01;3.97;;;2.28;;
52868;SDS011;39100;53.480;6.158;2023-01-16T09:55:50;5.45;;;2.85;;
52868;SDS011;39100;53.480;6.158;2023-01-16T09:58:38;4.10;;;2.08;;
52868;SDS011;39100;53.480;6.158;2023-01-16T10:01:15;4.32;;;2.53;;
52868;SDS011;39100;53.480;6.158;2023-01-16T10:03:45;3.63;;;1.77;;
52868;SDS011;39100;53.480;6.158;2023-01-16T10:06:16;4.20;;;2.00;;
52868;SDS011;39100;53.480;6.158;2023-01-16T10:11:39;2.15;;;1.70;;
52868;SDS011;39100;53.480;6.158;2023-01-16T10:14:13;3.78;;;1.65;;
52868;SDS011;39100;53.480;6.158;2023-01-16T10:17:05;4.38;;;2.17;;
52868;SDS011;39100;53.480;6.158;2023-01-16T10:20:12;3.80;;;2.60;;
52868;SDS011;39100;53.480;6.158;2023-01-16T10:23:09;2.72;;;1.75;;
52868;SDS011;39100;53.480;6.158;2023-01-16T10:28:55;2.92;;;1.85;;
52868;SDS011;39100;53.480;6.158;2023-01-16T10:31:50;3.03;;;1.60;;
52868;SDS011;39100;53.480;6.158;2023-01-16T10:34:30;6.18;;;2.55;;
52868;SDS011;39100;53.480;6.158;2023-01-16T10:37:12;4.07;;;1.83;;
52868;SDS011;39100;53.480;6.158;2023-01-16T10:39:38;4.47;;;1.45;;
52868;SDS011;39100;53.480;6.158;2023-01-16T10:42:11;3.38;;;1.95;;
52868;SDS011;39100;53.480;6.158;2023-01-16T10:45:01;4.22;;;1.90;;
52868;SDS011;39100;53.480;6.158;2023-01-16T10:48:18;2.30;;;1.60;;
52868;SDS011;39100;53.480;6.158;2023-01-16T10:51:02;2.90;;;1.40;;
52868;SDS011;39100;53.480;6.158;2023-01-16T10:53:30;1.60;;;1.30;;
52868;SDS011;39100;53.480;6.158;2023-01-16T10:55:56;2.28;;;1.35;;
52868;SDS011;39100;53.480;6.158;2023-01-16T10:58:24;1.48;;;1.35;;
52868;SDS011;39100;53.480;6.158;2023-01-16T11:00:58;1.70;;;1.40;;
52868;SDS011;39100;53.480;6.158;2023-01-16T11:03:36;2.83;;;1.30;;
52868;SDS011;39100;53.480;6.158;2023-01-16T11:06:06;4.72;;;1.58;;
52868;SDS011;39100;53.480;6.158;2023-01-16T11:08:33;4.18;;;1.98;;
52868;SDS011;39100;53.480;6.158;2023-01-16T11:10:59;3.40;;;1.25;;
52868;SDS011;39100;53.480;6.158;2023-01-16T11:13:26;3.15;;;2.38;;
52868;SDS011;39100;53.480;6.158;2023-01-16T11:18:56;2.97;;;1.50;;
52868;SDS011;39100;53.480;6.158;2023-01-16T11:24:00;1.83;;;1.23;;
52868;SDS011;39100;53.480;6.158;2023-01-16T11:26:35;1.15;;;0.73;;
52868;SDS011;39100;53.480;6.158;2023-01-16T11:29:00;2.50;;;1.50;;
52868;SDS011;39100;53.480;6.158;2023-01-16T11:31:27;3.10;;;1.23;;
52868;SDS011;39100;53.480;6.158;2023-01-16T11:33:57;1.85;;;1.35;;
52868;SDS011;39100;53.480;6.158;2023-01-16T11:36:31;2.35;;;1.42;;
52868;SDS011;39100;53.480;6.158;2023-01-16T11:38:58;3.13;;;1.90;;
52868;SDS011;39100;53.480;6.158;2023-01-16T11:41:34;3.33;;;1.10;;
52868;SDS011;39100;53.480;6.158;2023-01-16T11:47:05;3.08;;;1.00;;
52868;SDS011;39100;53.480;6.158;2023-01-16T11:49:39;1.90;;;0.70;;
52868;SDS011;39100;53.480;6.158;2023-01-16T11:52:15;1.05;;;0.60;;
52868;SDS011;39100;53.480;6.158;2023-01-16T11:54:56;2.53;;;1.08;;
52868;SDS011;39100;53.480;6.158;2023-01-16T11:57:35;0.85;;;0.55;;
52868;SDS011;39100;53.480;6.158;2023-01-16T12:05:52;1.17;;;0.50;;
52868;SDS011;39100;53.480;6.158;2023-01-16T12:14:10;2.17;;;0.47;;
52868;SDS011;39100;53.480;6.158;2023-01-16T12:32:51;0.65;;;0.40;;
52868;SDS011;39100;53.480;6.158;2023-01-16T12:44:15;0.30;;;0.10;;
52868;SDS011;39100;53.480;6.158;2023-01-16T12:58:14;0.98;;;0.20;;
52868;SDS011;39100;53.480;6.158;2023-01-16T13:00:44;0.40;;;0.20;;
52868;SDS011;39100;53.480;6.158;2023-01-16T13:05:44;0.45;;;0.20;;
52868;SDS011;39100;53.480;6.158;2023-01-16T13:08:14;0.57;;;0.30;;
52868;SDS011;39100;53.480;6.158;2023-01-16T13:10:48;0.77;;;0.38;;
52868;SDS011;39100;53.480;6.158;2023-01-16T13:13:47;0.40;;;0.20;;
52868;SDS011;39100;53.480;6.158;2023-01-16T13:16:27;0.35;;;0.30;;
52868;SDS011;39100;53.480;6.158;2023-01-16T13:18:58;1.27;;;0.32;;
52868;SDS011;39100;53.480;6.158;2023-01-16T13:21:59;1.83;;;0.40;;
52868;SDS011;39100;53.480;6.158;2023-01-16T13:27:07;1.05;;;0.32;;
52868;SDS011;39100;53.480;6.158;2023-01-16T13:29:42;1.27;;;0.45;;
52868;SDS011;39100;53.480;6.158;2023-01-16T13:32:21;0.50;;;0.50;;
52868;SDS011;39100;53.480;6.158;2023-01-16T13:34:51;1.55;;;0.52;;
52868;SDS011;39100;53.480;6.158;2023-01-16T13:42:49;0.77;;;0.40;;
52868;SDS011;39100;53.480;6.158;2023-01-16T13:45:47;1.95;;;0.20;;
52868;SDS011;39100;53.480;6.158;2023-01-16T13:48:18;0.30;;;0.30;;
52868;SDS011;39100;53.480;6.158;2023-01-16T13:50:52;1.55;;;0.50;;
52868;SDS011;39100;53.480;6.158;2023-01-16T13:53:45;0.93;;;0.43;;
52868;SDS011;39100;53.480;6.158;2023-01-16T13:56:17;0.60;;;0.40;;
52868;SDS011;39100;53.480;6.158;2023-01-16T13:58:49;0.98;;;0.57;;
52868;SDS011;39100;53.480;6.158;2023-01-16T14:01:34;0.70;;;0.50;;
52868;SDS011;39100;53.480;6.158;2023-01-16T14:06:50;0.75;;;0.50;;
52868;SDS011;39100;53.480;6.158;2023-01-16T14:13:24;0.60;;;0.57;;
52868;SDS011;39100;53.480;6.158;2023-01-16T14:15:53;0.55;;;0.55;;
52868;SDS011;39100;53.480;6.158;2023-01-16T14:18:41;0.60;;;0.57;;
52868;SDS011;39100;53.480;6.158;2023-01-16T14:21:29;0.88;;;0.88;;
52868;SDS011;39100;53.480;6.158;2023-01-16T14:26:43;0.77;;;0.45;;
52868;SDS011;39100;53.480;6.158;2023-01-16T14:29:20;0.52;;;0.40;;
52868;SDS011;39100;53.480;6.158;2023-01-16T14:34:23;1.45;;;0.55;;
52868;SDS011;39100;53.480;6.158;2023-01-16T14:37:10;2.38;;;0.65;;
52868;SDS011;39100;53.480;6.158;2023-01-16T14:39:47;0.65;;;0.60;;
52868;SDS011;39100;53.480;6.158;2023-01-16T14:53:46;1.50;;;0.98;;
52868;SDS011;39100;53.480;6.158;2023-01-16T14:56:38;3.70;;;1.92;;
52868;SDS011;39100;53.480;6.158;2023-01-16T14:59:17;2.45;;;1.40;;
52868;SDS011;39100;53.480;6.158;2023-01-16T15:01:50;2.00;;;1.65;;
52868;SDS011;39100;53.480;6.158;2023-01-16T15:07:31;3.55;;;1.33;;
52868;SDS011;39100;53.480;6.158;2023-01-16T15:13:21;3.05;;;1.58;;
52868;SDS011;39100;53.480;6.158;2023-01-16T15:15:49;2.15;;;1.08;;
52868;SDS011;39100;53.480;6.158;2023-01-16T15:18:24;2.25;;;0.75;;
52868;SDS011;39100;53.480;6.158;2023-01-16T15:21:12;2.13;;;0.77;;
52868;SDS011;39100;53.480;6.158;2023-01-16T15:24:01;0.63;;;0.63;;
52868;SDS011;39100;53.480;6.158;2023-01-16T15:32:12;1.60;;;0.98;;
52868;SDS011;39100;53.480;6.158;2023-01-16T15:34:43;1.17;;;1.08;;
52868;SDS011;39100;53.480;6.158;2023-01-16T15:37:20;0.70;;;0.70;;
52868;SDS011;39100;53.480;6.158;2023-01-16T15:39:52;1.40;;;1.25;;
52868;SDS011;39100;53.480;6.158;2023-01-16T15:42:19;1.80;;;1.50;;
52868;SDS011;39100;53.480;6.158;2023-01-16T15:45:13;1.13;;;1.02;;
52868;SDS011;39100;53.480;6.158;2023-01-16T15:50:47;1.08;;;1.00;;
52868;SDS011;39100;53.480;6.158;2023-01-16T15:53:20;1.65;;;1.15;;
52868;SDS011;39100;53.480;6.158;2023-01-16T15:55:56;1.40;;;1.30;;
52868;SDS011;39100;53.480;6.158;2023-01-16T15:58:28;2.58;;;1.13;;
52868;SDS011;39100;53.480;6.158;2023-01-16T16:01:03;1.25;;;1.17;;
52868;SDS011;39100;53.480;6.158;2023-01-16T16:03:36;1.30;;;1.20;;
52868;SDS011;39100;53.480;6.158;2023-01-16T16:06:04;1.33;;;1.23;;
52868;SDS011;39100;53.480;6.158;2023-01-16T16:08:32;1.50;;;1.40;;
52868;SDS011;39100;53.480;6.158;2023-01-16T16:11:03;2.10;;;2.00;;
52868;SDS011;39100;53.480;6.158;2023-01-16T16:13:49;2.75;;;2.28;;
52868;SDS011;39100;53.480;6.158;2023-01-16T16:16:17;4.15;;;3.22;;
52868;SDS011;39100;53.480;6.158;2023-01-16T16:19:04;3.22;;;2.75;;
52868;SDS011;39100;53.480;6.158;2023-01-16T16:24:34;3.17;;;2.55;;
52868;SDS011;39100;53.480;6.158;2023-01-16T16:27:11;2.67;;;2.35;;
52868;SDS011;39100;53.480;6.158;2023-01-16T16:29:39;1.60;;;1.50;;
52868;SDS011;39100;53.480;6.158;2023-01-16T16:32:05;1.65;;;1.55;;
52868;SDS011;39100;53.480;6.158;2023-01-16T16:34:37;2.83;;;1.98;;
52868;SDS011;39100;53.480;6.158;2023-01-16T16:37:07;7.00;;;4.88;;
52868;SDS011;39100;53.480;6.158;2023-01-16T16:39:44;8.23;;;5.45;;
52868;SDS011;39100;53.480;6.158;2023-01-16T16:42:34;14.00;;;7.60;;
52868;SDS011;39100;53.480;6.158;2023-01-16T16:47:44;6.65;;;4.88;;
52868;SDS011;39100;53.480;6.158;2023-01-16T16:50:28;4.65;;;3.33;;
52868;SDS011;39100;53.480;6.158;2023-01-16T16:53:05;4.18;;;3.40;;
52868;SDS011;39100;53.480;6.158;2023-01-16T16:58:19;3.85;;;2.63;;
52868;SDS011;39100;53.480;6.158;2023-01-16T17:00:47;3.05;;;2.47;;
52868;SDS011;39100;53.480;6.158;2023-01-16T17:03:16;2.60;;;2.13;;
52868;SDS011;39100;53.480;6.158;2023-01-16T17:05:47;2.42;;;2.15;;
52868;SDS011;39100;53.480;6.158;2023-01-16T17:08:17;2.53;;;2.22;;
52868;SDS011;39100;53.480;6.158;2023-01-16T17:10:48;2.33;;;2.13;;
52868;SDS011;39100;53.480;6.158;2023-01-16T17:13:20;3.00;;;1.98;;
52868;SDS011;39100;53.480;6.158;2023-01-16T17:15:48;2.50;;;1.73;;
52868;SDS011;39100;53.480;6.158;2023-01-16T17:18:17;2.08;;;1.88;;
52868;SDS011;39100;53.480;6.158;2023-01-16T17:20:43;2.15;;;1.80;;
52868;SDS011;39100;53.480;6.158;2023-01-16T17:23:13;2.10;;;1.48;;
52868;SDS011;39100;53.480;6.158;2023-01-16T17:25:40;1.40;;;1.00;;
52868;SDS011;39100;53.480;6.158;2023-01-16T17:28:07;1.40;;;1.30;;
52868;SDS011;39100;53.480;6.158;2023-01-16T17:30:33;1.33;;;1.17;;
52868;SDS011;39100;53.480;6.158;2023-01-16T17:33:01;0.70;;;0.70;;
52868;SDS011;39100;53.480;6.158;2023-01-16T17:35:40;0.85;;;0.80;;
52868;SDS011;39100;53.480;6.158;2023-01-16T17:38:14;0.70;;;0.70;;
52868;SDS011;39100;53.480;6.158;2023-01-16T17:40:41;0.68;;;0.68;;
52868;SDS011;39100;53.480;6.158;2023-01-16T17:43:25;1.35;;;0.68;;
52868;SDS011;39100;53.480;6.158;2023-01-16T17:46:11;0.50;;;0.50;;
52868;SDS011;39100;53.480;6.158;2023-01-16T17:48:41;0.70;;;0.70;;
52868;SDS011;39100;53.480;6.158;2023-01-16T17:51:07;0.50;;;0.50;;
52868;SDS011;39100;53.480;6.158;2023-01-16T17:53:33;0.70;;;0.70;;
52868;SDS011;39100;53.480;6.158;2023-01-16T17:56:00;2.63;;;0.90;;
52868;SDS011;39100;53.480;6.158;2023-01-16T17:58:34;1.42;;;1.00;;
52868;SDS011;39100;53.480;6.158;2023-01-16T18:01:11;1.58;;;0.77;;